Terminal Aerodrome Forecast
Issued by NWS

Home | Current Version | Previous Version | Text Only | Print | Product List | Glossary On
Versions: 1 2 3 4 5 6 7 8 9 10 11 12
561
FTAK31 PAJN 081128
TAFAKT
TAF
PAKT 081128Z 0812/0912 VRB04KT P6SM SKC
     FM081900 33008KT P6SM SKC
     FM090600 VRB03KT P6SM SKC
      AMD LTD TO CLD VIS AND WIND 0812/0815=

USA.gov is the U.S. government's official web portal to all federal, state and local government web resources and services.